createdAt,value
2019-01-08T00:01:18.683Z,68.02
2019-01-08T00:03:48.178Z,67.88
2019-01-08T00:06:17.653Z,67.79
2019-01-08T00:08:47.299Z,68.06
2019-01-08T00:11:16.974Z,67.96
2019-01-08T00:13:46.551Z,67.86
2019-01-08T00:16:16.032Z,68.00
2019-01-08T00:18:45.460Z,67.44
2019-01-08T00:21:15.016Z,67.46
2019-01-08T00:23:44.687Z,67.58
2019-01-08T00:26:14.157Z,67.71
2019-01-08T00:28:43.692Z,68.07
2019-01-08T00:31:13.120Z,68.25
2019-01-08T00:33:42.611Z,68.24
2019-01-08T00:36:12.144Z,68.30
2019-01-08T00:38:41.768Z,68.28
2019-01-08T00:41:11.248Z,68.45
2019-01-08T00:43:40.716Z,68.27
2019-01-08T00:46:10.328Z,67.98
2019-01-08T00:48:39.807Z,68.08
2019-01-08T00:51:09.407Z,68.30
2019-01-08T00:53:38.836Z,68.29
2019-01-08T00:56:08.321Z,68.28
2019-01-08T00:58:37.870Z,68.10
2019-01-08T01:01:07.534Z,68.00
2019-01-08T01:03:37.425Z,68.40
2019-01-08T01:06:06.894Z,68.42
2019-01-08T01:08:36.491Z,68.40
2019-01-08T01:11:05.944Z,68.59
2019-01-08T01:13:35.399Z,68.27
2019-01-08T01:16:04.971Z,68.21
2019-01-08T01:18:34.530Z,68.36
2019-01-08T01:21:03.986Z,68.21
2019-01-08T01:23:33.469Z,68.29
2019-01-08T01:26:02.939Z,68.52
2019-01-08T01:28:32.699Z,68.49
2019-01-08T01:31:02.194Z,68.41
2019-01-08T01:33:31.716Z,68.58
2019-01-08T01:36:01.146Z,68.63
2019-01-08T01:38:30.592Z,68.78
2019-01-08T01:41:00.175Z,69.06
2019-01-08T01:43:29.631Z,69.16
2019-01-08T01:45:59.120Z,69.21
2019-01-08T01:48:28.553Z,69.61
2019-01-08T01:50:59.929Z,69.44
2019-01-08T01:53:29.445Z,69.11
2019-01-08T01:55:58.872Z,69.14
2019-01-08T01:58:28.358Z,68.72
2019-01-08T02:00:57.793Z,69.06
2019-01-08T02:03:27.426Z,69.29
2019-01-08T02:05:56.917Z,69.33
2019-01-08T02:08:26.456Z,69.11
2019-01-08T02:10:55.980Z,69.05
2019-01-08T02:13:25.448Z,68.83
2019-01-08T02:15:55.356Z,69.05
2019-01-08T02:18:24.817Z,69.23
2019-01-08T02:20:54.277Z,69.22
2019-01-08T02:23:23.814Z,68.58
2019-01-08T02:25:53.373Z,68.42
2019-01-08T02:28:22.859Z,68.86
2019-01-08T02:30:52.421Z,68.67
2019-01-08T02:33:21.819Z,68.47
2019-01-08T02:35:51.265Z,68.69
2019-01-08T02:38:20.687Z,68.63
2019-01-08T02:40:50.118Z,68.54
2019-01-08T02:43:19.595Z,68.45
2019-01-08T02:45:49.167Z,68.43
2019-01-08T02:48:18.627Z,68.71
2019-01-08T02:50:48.102Z,68.78
2019-01-08T02:53:17.687Z,68.24
2019-01-08T02:55:47.395Z,67.72
2019-01-08T02:58:16.872Z,67.42
2019-01-08T03:00:46.356Z,67.28
2019-01-08T03:03:16.025Z,67.42
2019-01-08T03:05:45.515Z,67.56
2019-01-08T03:08:14.951Z,67.95
2019-01-08T03:10:44.509Z,67.88
2019-01-08T03:13:14.123Z,67.70
2019-01-08T03:15:43.516Z,67.74
2019-01-08T03:18:12.978Z,67.62
2019-01-08T03:20:42.491Z,67.12
2019-01-08T03:23:11.958Z,67.15
2019-01-08T03:25:41.467Z,67.00
2019-01-08T03:28:10.904Z,67.02
2019-01-08T03:30:40.446Z,66.73
2019-01-08T03:33:09.987Z,66.46
2019-01-08T03:35:39.665Z,66.63
2019-01-08T03:38:09.146Z,66.70
2019-01-08T03:40:38.655Z,66.77
2019-01-08T03:43:08.153Z,66.98
2019-01-08T03:45:37.710Z,67.15
2019-01-08T03:48:07.258Z,66.92
2019-01-08T03:50:36.695Z,67.07
2019-01-08T03:53:06.213Z,67.18
2019-01-08T03:55:35.801Z,67.13
2019-01-08T03:58:05.495Z,67.16
2019-01-08T04:00:35.245Z,66.95
2019-01-08T04:03:04.712Z,67.24
2019-01-08T04:05:34.179Z,67.05
2019-01-08T04:08:03.734Z,66.72
2019-01-08T04:10:33.322Z,66.57
2019-01-08T04:13:02.901Z,66.30
2019-01-08T04:15:32.357Z,67.02
2019-01-08T04:18:01.753Z,67.22
2019-01-08T04:20:31.190Z,67.46
2019-01-08T04:23:00.659Z,67.47
2019-01-08T04:25:30.099Z,67.58
2019-01-08T04:27:59.549Z,67.34
2019-01-08T04:30:29.043Z,67.67
2019-01-08T04:32:58.695Z,67.88
2019-01-08T04:35:28.200Z,68.07
2019-01-08T04:37:57.819Z,68.05
2019-01-08T04:40:27.405Z,68.37
2019-01-08T04:42:56.857Z,68.53
2019-01-08T04:45:26.336Z,68.40
2019-01-08T04:47:55.974Z,68.35
2019-01-08T04:50:25.578Z,68.39
2019-01-08T04:52:55.229Z,68.20
2019-01-08T04:55:24.869Z,68.31
2019-01-08T04:57:54.403Z,68.64
2019-01-08T05:00:24.058Z,68.11
2019-01-08T05:02:53.598Z,68.12
2019-01-08T05:05:23.075Z,68.20
2019-01-08T05:07:52.541Z,68.28
2019-01-08T05:10:22.182Z,67.83
2019-01-08T05:12:51.717Z,67.67
2019-01-08T05:15:21.205Z,67.47
2019-01-08T05:17:50.718Z,67.63
2019-01-08T05:20:20.334Z,67.69
2019-01-08T05:22:49.796Z,68.01
2019-01-08T05:25:19.270Z,67.86
2019-01-08T05:27:48.850Z,67.66
2019-01-08T05:30:18.346Z,67.67
2019-01-08T05:32:47.950Z,67.52
2019-01-08T05:35:17.592Z,66.89
2019-01-08T05:37:47.215Z,66.97
2019-01-08T05:40:16.915Z,66.61
2019-01-08T05:42:46.585Z,66.42
2019-01-08T05:45:16.206Z,66.29
2019-01-08T05:47:45.767Z,65.93
2019-01-08T05:50:15.403Z,65.89
2019-01-08T05:52:44.938Z,65.93
2019-01-08T05:55:14.541Z,65.91
2019-01-08T05:57:44.033Z,65.95
2019-01-08T06:00:16.585Z,65.72
2019-01-08T06:02:44.845Z,65.67
2019-01-08T06:05:14.520Z,65.74
2019-01-08T06:07:43.999Z,65.48
2019-01-08T06:10:13.654Z,65.65
2019-01-08T06:12:43.314Z,65.50
2019-01-08T06:15:12.932Z,65.72
2019-01-08T06:17:42.386Z,65.42
2019-01-08T06:20:11.848Z,65.61
2019-01-08T06:22:42.253Z,65.49
2019-01-08T06:25:11.752Z,65.34
2019-01-08T06:27:41.252Z,65.41
2019-01-08T06:30:10.784Z,65.44
2019-01-08T06:32:40.475Z,65.66
2019-01-08T06:35:10.025Z,65.24
2019-01-08T06:37:39.495Z,65.08
2019-01-08T06:40:09.512Z,64.02
2019-01-08T06:42:39.042Z,64.03
2019-01-08T06:45:08.998Z,64.53
2019-01-08T06:47:38.570Z,64.30
2019-01-08T06:50:09.111Z,64.35
2019-01-08T06:52:38.654Z,64.30
2019-01-08T06:55:08.967Z,64.73
2019-01-08T06:57:38.445Z,64.91
2019-01-08T07:00:11.222Z,64.66
2019-01-08T07:02:40.685Z,64.54
2019-01-08T07:05:10.103Z,64.08
2019-01-08T07:07:39.576Z,64.37
2019-01-08T07:10:09.306Z,64.43
2019-01-08T07:12:38.844Z,64.43
2019-01-08T07:15:08.428Z,63.97
2019-01-08T07:17:37.887Z,63.50
2019-01-08T07:20:08.605Z,64.13
2019-01-08T07:22:38.206Z,63.93
2019-01-08T07:25:09.472Z,63.97
2019-01-08T07:27:38.991Z,63.90
2019-01-08T07:30:08.970Z,64.04
2019-01-08T07:32:38.794Z,63.53
2019-01-08T07:35:08.307Z,63.98
2019-01-08T07:37:37.830Z,63.81
2019-01-08T07:40:07.599Z,63.21
2019-01-08T07:42:37.114Z,63.14
2019-01-08T07:45:06.667Z,62.79
2019-01-08T07:47:36.164Z,62.88
2019-01-08T07:50:06.419Z,63.38
2019-01-08T07:52:35.873Z,63.50
2019-01-08T07:55:05.480Z,63.66
2019-01-08T07:57:35.024Z,63.24
2019-01-08T08:00:05.982Z,63.45
2019-01-08T08:02:35.449Z,63.51
2019-01-08T08:05:05.403Z,63.23
2019-01-08T08:07:34.841Z,62.52
2019-01-08T08:10:04.456Z,62.26
2019-01-08T08:12:34.068Z,61.76
2019-01-08T08:15:03.506Z,61.39
2019-01-08T08:17:33.076Z,61.02
2019-01-08T08:20:02.516Z,61.43
2019-01-08T08:22:32.067Z,61.46
2019-01-08T08:25:01.599Z,61.59
2019-01-08T08:27:31.213Z,61.17
2019-01-08T08:30:00.688Z,61.23
2019-01-08T08:32:30.232Z,60.95
2019-01-08T08:35:07.839Z,60.64
2019-01-08T08:37:31.084Z,60.45
2019-01-08T08:40:00.511Z,60.55
2019-01-08T08:42:30.056Z,60.22
2019-01-08T08:44:59.575Z,60.29
2019-01-08T08:47:29.063Z,60.30
2019-01-08T08:49:58.543Z,60.21
2019-01-08T08:52:28.079Z,60.27
2019-01-08T08:54:57.571Z,60.29
2019-01-08T08:57:27.236Z,59.94
2019-01-08T08:59:56.755Z,59.94
2019-01-08T09:02:26.434Z,59.55
2019-01-08T09:04:55.942Z,59.27
2019-01-08T09:07:25.411Z,58.98
2019-01-08T09:09:54.852Z,59.16
2019-01-08T09:12:24.514Z,58.80
2019-01-08T09:14:54.106Z,59.44
2019-01-08T09:17:23.662Z,59.35
2019-01-08T09:19:53.122Z,59.32
2019-01-08T09:22:22.663Z,59.35
2019-01-08T09:24:52.230Z,59.34
2019-01-08T09:27:21.876Z,59.21
2019-01-08T09:29:51.355Z,59.17
2019-01-08T09:32:20.942Z,58.92
2019-01-08T09:34:50.519Z,58.49
2019-01-08T09:37:19.970Z,58.48
2019-01-08T09:39:49.422Z,58.72
2019-01-08T09:42:18.900Z,58.59
2019-01-08T09:44:48.539Z,58.89
2019-01-08T09:47:18.002Z,58.63
2019-01-08T09:49:47.545Z,58.72
2019-01-08T09:52:17.019Z,58.82
2019-01-08T09:54:46.450Z,58.45
2019-01-08T09:57:15.928Z,58.11
2019-01-08T09:59:45.341Z,58.34
2019-01-08T10:02:14.787Z,58.06
2019-01-08T10:04:44.282Z,57.85
2019-01-08T10:07:13.824Z,57.90
2019-01-08T10:09:43.450Z,57.97
2019-01-08T10:12:13.100Z,57.56
2019-01-08T10:14:42.562Z,57.52
2019-01-08T10:17:12.000Z,57.51
2019-01-08T10:19:41.476Z,57.62
2019-01-08T10:22:11.030Z,57.22
2019-01-08T10:24:40.905Z,57.01
2019-01-08T10:27:10.350Z,57.01
2019-01-08T10:29:39.952Z,56.91
2019-01-08T10:32:09.388Z,56.29
2019-01-08T10:34:38.980Z,55.90
2019-01-08T10:37:08.640Z,55.76
2019-01-08T10:39:38.614Z,56.04
2019-01-08T10:42:08.068Z,56.31
2019-01-08T10:44:37.492Z,55.83
2019-01-08T10:47:07.044Z,56.01
2019-01-08T10:49:36.571Z,55.71
2019-01-08T10:52:06.133Z,56.08
2019-01-08T10:54:35.609Z,56.57
2019-01-08T10:57:05.190Z,56.75
2019-01-08T10:59:34.642Z,56.01
2019-01-08T11:02:04.192Z,56.47
2019-01-08T11:04:33.744Z,56.26
2019-01-08T11:07:03.251Z,56.62
2019-01-08T11:09:32.702Z,56.51
2019-01-08T11:12:02.296Z,56.13
2019-01-08T11:14:31.743Z,55.36
2019-01-08T11:17:01.225Z,55.49
2019-01-08T11:19:30.639Z,55.32
2019-01-08T11:22:00.079Z,55.11
2019-01-08T11:24:29.670Z,55.11
2019-01-08T11:26:59.194Z,54.31
2019-01-08T11:29:28.690Z,53.49
2019-01-08T11:31:58.286Z,53.15
2019-01-08T11:34:27.770Z,53.06
2019-01-08T11:36:57.303Z,53.56
2019-01-08T11:39:26.829Z,53.45
2019-01-08T11:41:56.349Z,53.28
2019-01-08T11:44:26.024Z,53.06
2019-01-08T11:46:55.524Z,53.27
2019-01-08T11:49:24.965Z,52.82
2019-01-08T11:51:54.385Z,52.97
2019-01-08T11:54:23.890Z,52.97
2019-01-08T11:56:53.431Z,52.26
2019-01-08T11:59:22.932Z,52.05
2019-01-08T12:01:57.275Z,51.94
2019-01-08T12:04:23.718Z,51.21
2019-01-08T12:06:53.152Z,50.88
2019-01-08T12:09:22.560Z,50.83
2019-01-08T12:11:52.520Z,50.11
2019-01-08T12:14:21.909Z,50.46
2019-01-08T12:16:51.359Z,49.87
2019-01-08T12:19:20.795Z,49.48
2019-01-08T12:21:50.245Z,48.88
2019-01-08T12:24:19.716Z,49.16
2019-01-08T12:26:49.205Z,48.73
2019-01-08T12:29:18.647Z,48.66
2019-01-08T12:31:48.149Z,48.91
2019-01-08T12:34:17.613Z,48.24
2019-01-08T12:36:47.109Z,48.39
2019-01-08T12:39:16.854Z,48.15
2019-01-08T12:41:46.331Z,48.14
2019-01-08T12:44:15.801Z,47.81
2019-01-08T12:46:45.371Z,47.91
2019-01-08T12:49:14.887Z,47.52
2019-01-08T12:51:44.434Z,47.05
2019-01-08T12:54:13.954Z,47.43
2019-01-08T12:56:43.464Z,47.07
2019-01-08T12:59:12.910Z,47.07
2019-01-08T13:01:42.371Z,46.95
2019-01-08T13:04:11.859Z,47.33
2019-01-08T13:06:41.291Z,47.67
2019-01-08T13:09:10.728Z,48.63
2019-01-08T13:11:40.243Z,48.69
2019-01-08T13:14:09.684Z,49.08
2019-01-08T13:16:39.182Z,49.26
2019-01-08T13:19:08.612Z,49.43
2019-01-08T13:21:38.068Z,49.54
2019-01-08T13:24:25.905Z,49.31
2019-01-08T13:26:56.298Z,49.26
2019-01-08T13:29:25.813Z,49.57
2019-01-08T13:31:55.285Z,50.07
2019-01-08T13:34:24.797Z,50.17
2019-01-08T13:36:54.352Z,50.27
2019-01-08T13:39:23.896Z,50.69
2019-01-08T13:41:53.355Z,50.51
2019-01-08T13:44:22.840Z,51.11
2019-01-08T13:46:52.302Z,51.23
2019-01-08T13:49:21.792Z,51.13
2019-01-08T13:51:51.239Z,51.69
2019-01-08T13:54:20.759Z,51.86
2019-01-08T13:56:50.260Z,51.96
2019-01-08T13:59:19.698Z,52.16
2019-01-08T14:01:49.141Z,52.02
2019-01-08T14:04:18.596Z,52.03
2019-01-08T14:06:48.068Z,51.80
2019-01-08T14:09:17.583Z,51.89
2019-01-08T14:11:47.081Z,51.91
2019-01-08T14:14:16.575Z,51.88
2019-01-08T14:16:46.155Z,52.21
2019-01-08T14:19:15.646Z,51.70
2019-01-08T14:21:45.129Z,51.92
2019-01-08T14:24:14.599Z,51.89
2019-01-08T14:26:44.066Z,51.74
2019-01-08T14:29:13.559Z,51.68
2019-01-08T14:31:43.005Z,51.80
2019-01-08T14:34:12.551Z,52.49
2019-01-08T14:36:42.018Z,52.07
2019-01-08T14:39:11.461Z,52.04
2019-01-08T14:41:40.910Z,52.35
2019-01-08T14:44:10.358Z,56.53
2019-01-08T14:46:39.884Z,53.29
2019-01-08T14:49:09.343Z,52.14
2019-01-08T14:51:38.802Z,52.11
2019-01-08T14:54:08.323Z,52.59
2019-01-08T14:56:37.801Z,52.54
2019-01-08T14:59:07.546Z,52.94
2019-01-08T15:01:36.974Z,52.99
2019-01-08T15:04:06.481Z,52.89
2019-01-08T15:06:35.976Z,52.55
2019-01-08T15:09:08.105Z,52.32
2019-01-08T15:11:37.764Z,52.53
2019-01-08T15:14:07.305Z,52.53
2019-01-08T15:16:36.809Z,53.38
2019-01-08T15:19:06.347Z,54.03
2019-01-08T15:21:35.868Z,54.20
2019-01-08T15:24:05.394Z,53.95
2019-01-08T15:26:34.849Z,53.81
2019-01-08T15:29:04.370Z,53.88
2019-01-08T15:31:33.835Z,53.99
2019-01-08T15:34:03.274Z,54.20
2019-01-08T15:36:33.811Z,54.63
2019-01-08T15:39:03.755Z,54.90
2019-01-08T15:41:33.164Z,55.30
2019-01-08T15:44:02.587Z,55.92
2019-01-08T15:46:32.043Z,56.48
2019-01-08T15:49:01.561Z,56.29
2019-01-08T15:51:31.023Z,56.21
2019-01-08T15:54:00.496Z,56.40
2019-01-08T15:56:29.957Z,56.23
2019-01-08T15:58:59.422Z,56.31
2019-01-08T16:01:28.885Z,56.13
2019-01-08T16:03:58.384Z,56.26
2019-01-08T16:06:27.909Z,56.27
2019-01-08T16:08:57.396Z,56.30
2019-01-08T16:11:26.950Z,56.50
2019-01-08T16:13:56.456Z,56.80
2019-01-08T16:16:25.926Z,56.74
2019-01-08T16:18:55.393Z,56.74
2019-01-08T16:21:24.907Z,56.58
2019-01-08T16:23:54.412Z,56.91
2019-01-08T16:26:23.869Z,57.20
2019-01-08T16:28:53.340Z,56.81
2019-01-08T16:31:22.847Z,56.83
2019-01-08T16:33:52.293Z,56.89
2019-01-08T16:36:21.798Z,56.85
2019-01-08T16:38:51.377Z,56.86
2019-01-08T16:41:20.856Z,56.89
2019-01-08T16:43:50.304Z,56.94
2019-01-08T16:46:19.766Z,56.45
2019-01-08T16:48:49.219Z,56.33
2019-01-08T16:51:18.695Z,56.52
2019-01-08T16:53:48.118Z,56.81
2019-01-08T16:56:19.665Z,56.42
2019-01-08T16:58:48.879Z,56.52
2019-01-08T17:01:18.320Z,56.75
2019-01-08T17:03:48.042Z,56.81
2019-01-08T17:06:17.675Z,56.96
2019-01-08T17:08:47.135Z,56.93
2019-01-08T17:11:16.678Z,57.01
2019-01-08T17:13:46.153Z,57.40
2019-01-08T17:16:16.243Z,57.15
2019-01-08T17:18:45.757Z,57.75
2019-01-08T17:21:15.238Z,57.35
2019-01-08T17:23:46.772Z,57.50
2019-01-08T17:26:16.289Z,57.34
2019-01-08T17:28:45.774Z,57.40
2019-01-08T17:31:15.257Z,57.04
2019-01-08T17:33:44.745Z,57.11
2019-01-08T17:36:14.264Z,57.01
2019-01-08T17:38:43.781Z,56.98
2019-01-08T17:41:13.225Z,57.21
2019-01-08T17:43:42.701Z,57.32
2019-01-08T17:46:12.291Z,57.45
2019-01-08T17:48:41.800Z,57.26
2019-01-08T17:51:11.267Z,56.98
2019-01-08T17:53:40.718Z,57.07
2019-01-08T17:56:10.216Z,56.89
2019-01-08T17:58:42.028Z,56.91
2019-01-08T18:01:26.650Z,57.14
2019-01-08T18:03:56.175Z,56.89
2019-01-08T18:06:25.724Z,57.19
2019-01-08T18:08:55.242Z,56.70
2019-01-08T18:11:24.860Z,56.86
2019-01-08T18:13:54.355Z,56.94
2019-01-08T18:16:23.887Z,57.12
2019-01-08T18:18:53.349Z,57.11
2019-01-08T18:21:23.012Z,56.79
2019-01-08T18:23:52.576Z,56.50
2019-01-08T18:26:22.153Z,56.54
2019-01-08T18:28:51.643Z,56.30
2019-01-08T18:31:21.153Z,55.83
2019-01-08T18:33:51.687Z,56.28
2019-01-08T18:36:21.761Z,56.15
2019-01-08T18:38:51.359Z,56.08
2019-01-08T18:41:21.265Z,56.14
2019-01-08T18:43:50.740Z,56.12
2019-01-08T18:46:20.198Z,55.96
2019-01-08T18:48:49.863Z,56.09
2019-01-08T18:51:19.475Z,56.07
2019-01-08T18:53:49.027Z,55.95
2019-01-08T18:56:18.559Z,56.27
2019-01-08T18:58:48.115Z,56.26
2019-01-08T19:01:17.685Z,56.41
2019-01-08T19:03:47.208Z,57.04
2019-01-08T19:06:17.244Z,56.75
2019-01-08T19:09:38.319Z,56.76
2019-01-08T19:12:10.191Z,56.78
2019-01-08T19:14:41.248Z,57.00
2019-01-08T19:17:10.777Z,56.72
2019-01-08T19:19:40.346Z,56.84
2019-01-08T19:22:09.845Z,56.85
2019-01-08T19:24:39.479Z,56.67
2019-01-08T19:27:08.994Z,56.41
2019-01-08T19:29:38.590Z,56.78
2019-01-08T19:32:08.073Z,56.68
2019-01-08T19:34:37.585Z,57.07
2019-01-08T19:37:07.120Z,56.90
2019-01-08T19:39:36.757Z,56.41
2019-01-08T19:42:06.623Z,56.36
2019-01-08T19:44:36.158Z,56.88
2019-01-08T19:47:05.758Z,57.01
2019-01-08T19:49:35.310Z,57.06
2019-01-08T19:52:04.948Z,57.00
2019-01-08T19:54:34.443Z,57.73
2019-01-08T19:57:05.206Z,57.47
2019-01-08T19:59:34.810Z,57.57
2019-01-08T20:02:05.794Z,57.71
2019-01-08T20:04:35.602Z,57.36
2019-01-08T20:07:05.079Z,57.18
2019-01-08T20:09:34.981Z,56.89
2019-01-08T20:12:04.532Z,56.92
2019-01-08T20:14:34.731Z,56.91
2019-01-08T20:17:04.573Z,56.39
2019-01-08T20:19:34.071Z,56.16
2019-01-08T20:22:03.560Z,56.65
2019-01-08T20:24:33.075Z,56.27
2019-01-08T20:27:02.583Z,56.19
2019-01-08T20:29:32.095Z,56.62
2019-01-08T20:32:01.599Z,56.77
2019-01-08T20:34:31.054Z,56.68
2019-01-08T20:37:00.503Z,56.93
2019-01-08T20:39:30.215Z,56.33
2019-01-08T20:41:59.677Z,56.67
2019-01-08T20:44:29.786Z,56.84
2019-01-08T20:46:59.266Z,56.82
2019-01-08T20:49:28.748Z,56.65
2019-01-08T20:51:58.341Z,56.38
2019-01-08T20:54:27.815Z,55.91
2019-01-08T20:56:57.297Z,55.62
2019-01-08T20:59:26.740Z,55.98
2019-01-08T21:01:56.230Z,56.14
2019-01-08T21:04:25.741Z,56.52
2019-01-08T21:06:55.161Z,56.38
2019-01-08T21:09:24.638Z,56.42
2019-01-08T21:11:54.323Z,56.38
2019-01-08T21:14:23.804Z,55.98
2019-01-08T21:16:53.262Z,55.68
2019-01-08T21:19:22.766Z,55.55
2019-01-08T21:21:52.228Z,55.38
2019-01-08T21:24:28.530Z,55.38
2019-01-08T21:26:53.123Z,55.50
2019-01-08T21:29:22.535Z,55.94
2019-01-08T21:31:51.986Z,56.17
2019-01-08T21:34:21.411Z,56.31
2019-01-08T21:36:50.866Z,56.34
2019-01-08T21:39:20.313Z,55.95
2019-01-08T21:41:49.806Z,56.34
2019-01-08T21:44:19.272Z,56.30
2019-01-08T21:46:48.930Z,56.29
2019-01-08T21:49:18.422Z,56.27
2019-01-08T21:51:47.928Z,56.39
2019-01-08T21:54:17.379Z,56.52
2019-01-08T21:56:46.846Z,56.88
2019-01-08T21:59:16.346Z,56.39
2019-01-08T22:01:45.785Z,56.84
2019-01-08T22:04:15.321Z,56.66
2019-01-08T22:06:44.881Z,56.55
2019-01-08T22:09:16.587Z,56.80
2019-01-08T22:11:46.063Z,57.03
2019-01-08T22:14:15.520Z,57.21
2019-01-08T22:16:44.998Z,57.33
2019-01-08T22:19:14.931Z,57.35
2019-01-08T22:21:44.367Z,57.66
2019-01-08T22:24:13.853Z,57.53
2019-01-08T22:26:43.332Z,57.53
2019-01-08T22:29:12.903Z,57.13
2019-01-08T22:31:42.367Z,57.49
2019-01-08T22:34:11.859Z,57.67
2019-01-08T22:36:41.337Z,57.78
2019-01-08T22:39:10.805Z,57.78
2019-01-08T22:41:40.579Z,57.76
2019-01-08T22:44:11.081Z,57.39
2019-01-08T22:46:40.539Z,57.64
2019-01-08T22:49:10.006Z,57.75
2019-01-08T22:51:40.640Z,58.19
2019-01-08T22:54:10.112Z,58.18
2019-01-08T22:56:39.499Z,58.29
2019-01-08T22:59:09.337Z,58.59
2019-01-08T23:01:41.955Z,58.17
2019-01-08T23:04:12.688Z,58.02
2019-01-08T23:06:42.333Z,58.19
2019-01-08T23:09:12.617Z,58.62
2019-01-08T23:11:42.310Z,58.33
2019-01-08T23:14:11.821Z,58.35
2019-01-08T23:16:41.319Z,58.26
2019-01-08T23:19:10.774Z,58.53
2019-01-08T23:21:40.292Z,58.38
2019-01-08T23:24:09.769Z,58.01
2019-01-08T23:26:39.212Z,57.66
2019-01-08T23:29:08.736Z,57.84
2019-01-08T23:31:38.165Z,57.69
2019-01-08T23:34:07.685Z,57.82
2019-01-08T23:36:37.152Z,58.13
2019-01-08T23:39:08.461Z,58.01
2019-01-08T23:41:37.974Z,58.10
2019-01-08T23:44:07.468Z,58.14
2019-01-08T23:46:36.931Z,58.47
2019-01-08T23:49:06.404Z,58.70
2019-01-08T23:51:35.843Z,58.53
2019-01-08T23:54:05.406Z,58.54
2019-01-08T23:56:35.738Z,58.48
2019-01-08T23:59:05.227Z,58.57
